sensor_id;sensor_type;location;lat;lon;timestamp;temperature;humidity
36450;DHT22;22475;51.390;7.180;2023-03-18T00:00:08;12.90;86.60
36450;DHT22;22475;51.390;7.180;2023-03-18T00:02:37;12.80;86.60
36450;DHT22;22475;51.390;7.180;2023-03-18T00:05:06;12.80;86.60
36450;DHT22;22475;51.390;7.180;2023-03-18T00:07:33;12.90;86.70
36450;DHT22;22475;51.390;7.180;2023-03-18T00:10:00;12.90;86.80
36450;DHT22;22475;51.390;7.180;2023-03-18T00:12:28;12.90;86.80
36450;DHT22;22475;51.390;7.180;2023-03-18T00:14:55;12.90;86.80
36450;DHT22;22475;51.390;7.180;2023-03-18T00:17:22;12.90;86.90
36450;DHT22;22475;51.390;7.180;2023-03-18T00:19:50;12.90;86.90
36450;DHT22;22475;51.390;7.180;2023-03-18T00:22:17;12.90;87.70
36450;DHT22;22475;51.390;7.180;2023-03-18T00:24:44;12.90;87.00
36450;DHT22;22475;51.390;7.180;2023-03-18T00:27:10;12.90;87.00
36450;DHT22;22475;51.390;7.180;2023-03-18T00:29:37;12.90;87.10
36450;DHT22;22475;51.390;7.180;2023-03-18T00:32:04;12.90;87.20
36450;DHT22;22475;51.390;7.180;2023-03-18T00:34:31;12.90;87.20
36450;DHT22;22475;51.390;7.180;2023-03-18T00:36:59;12.80;87.20
36450;DHT22;22475;51.390;7.180;2023-03-18T00:39:26;12.90;87.30
36450;DHT22;22475;51.390;7.180;2023-03-18T00:41:54;12.90;87.50
36450;DHT22;22475;51.390;7.180;2023-03-18T00:44:21;12.90;87.50
36450;DHT22;22475;51.390;7.180;2023-03-18T00:46:47;12.90;87.50
36450;DHT22;22475;51.390;7.180;2023-03-18T00:49:14;12.90;87.50
36450;DHT22;22475;51.390;7.180;2023-03-18T00:51:42;12.90;87.50
36450;DHT22;22475;51.390;7.180;2023-03-18T00:54:11;12.90;87.60
36450;DHT22;22475;51.390;7.180;2023-03-18T00:56:41;12.90;87.60
36450;DHT22;22475;51.390;7.180;2023-03-18T00:59:08;12.90;87.60
36450;DHT22;22475;51.390;7.180;2023-03-18T01:01:35;12.90;87.60
36450;DHT22;22475;51.390;7.180;2023-03-18T01:04:03;12.90;87.60
36450;DHT22;22475;51.390;7.180;2023-03-18T01:06:32;12.90;87.60
36450;DHT22;22475;51.390;7.180;2023-03-18T01:09:00;12.90;87.70
36450;DHT22;22475;51.390;7.180;2023-03-18T01:11:30;12.90;87.80
36450;DHT22;22475;51.390;7.180;2023-03-18T01:13:58;12.90;88.00
36450;DHT22;22475;51.390;7.180;2023-03-18T01:16:25;12.90;88.20
36450;DHT22;22475;51.390;7.180;2023-03-18T01:18:52;12.90;88.30
36450;DHT22;22475;51.390;7.180;2023-03-18T01:21:19;12.90;88.40
36450;DHT22;22475;51.390;7.180;2023-03-18T01:23:46;12.90;88.50
36450;DHT22;22475;51.390;7.180;2023-03-18T01:26:13;12.90;88.50
36450;DHT22;22475;51.390;7.180;2023-03-18T01:28:42;12.90;88.60
36450;DHT22;22475;51.390;7.180;2023-03-18T01:31:09;12.90;88.70
36450;DHT22;22475;51.390;7.180;2023-03-18T01:33:37;12.90;89.10
36450;DHT22;22475;51.390;7.180;2023-03-18T01:36:05;12.90;88.80
36450;DHT22;22475;51.390;7.180;2023-03-18T01:38:33;12.90;88.80
36450;DHT22;22475;51.390;7.180;2023-03-18T01:41:00;12.90;88.80
36450;DHT22;22475;51.390;7.180;2023-03-18T01:43:29;12.90;88.80
36450;DHT22;22475;51.390;7.180;2023-03-18T01:45:59;12.90;88.90
36450;DHT22;22475;51.390;7.180;2023-03-18T01:48:27;12.90;88.90
36450;DHT22;22475;51.390;7.180;2023-03-18T01:50:56;12.90;88.90
36450;DHT22;22475;51.390;7.180;2023-03-18T01:53:27;12.90;88.90
36450;DHT22;22475;51.390;7.180;2023-03-18T01:55:55;12.90;88.90
36450;DHT22;22475;51.390;7.180;2023-03-18T01:58:27;12.90;89.00
36450;DHT22;22475;51.390;7.180;2023-03-18T02:01:00;12.90;89.00
36450;DHT22;22475;51.390;7.180;2023-03-18T02:03:28;12.90;89.10
36450;DHT22;22475;51.390;7.180;2023-03-18T02:05:55;12.90;89.20
36450;DHT22;22475;51.390;7.180;2023-03-18T02:08:22;12.90;89.30
36450;DHT22;22475;51.390;7.180;2023-03-18T02:10:49;12.90;89.30
36450;DHT22;22475;51.390;7.180;2023-03-18T02:13:16;12.90;89.30
36450;DHT22;22475;51.390;7.180;2023-03-18T02:15:48;12.90;89.30
36450;DHT22;22475;51.390;7.180;2023-03-18T02:18:20;12.90;89.30
36450;DHT22;22475;51.390;7.180;2023-03-18T02:20:59;12.90;89.40
36450;DHT22;22475;51.390;7.180;2023-03-18T02:23:37;12.90;89.50
36450;DHT22;22475;51.390;7.180;2023-03-18T02:26:14;12.90;89.50
36450;DHT22;22475;51.390;7.180;2023-03-18T02:28:44;12.90;89.50
36450;DHT22;22475;51.390;7.180;2023-03-18T02:31:13;12.90;89.50
36450;DHT22;22475;51.390;7.180;2023-03-18T02:33:41;12.90;89.50
36450;DHT22;22475;51.390;7.180;2023-03-18T02:36:11;12.90;89.60
36450;DHT22;22475;51.390;7.180;2023-03-18T02:38:40;12.90;89.70
36450;DHT22;22475;51.390;7.180;2023-03-18T02:41:16;12.90;89.70
36450;DHT22;22475;51.390;7.180;2023-03-18T02:43:45;12.90;89.80
36450;DHT22;22475;51.390;7.180;2023-03-18T02:46:25;12.90;89.80
36450;DHT22;22475;51.390;7.180;2023-03-18T02:48:55;12.90;90.00
36450;DHT22;22475;51.390;7.180;2023-03-18T02:51:22;12.90;90.00
36450;DHT22;22475;51.390;7.180;2023-03-18T02:53:49;12.90;90.10
36450;DHT22;22475;51.390;7.180;2023-03-18T02:56:18;12.90;90.10
36450;DHT22;22475;51.390;7.180;2023-03-18T02:58:46;12.90;90.10
36450;DHT22;22475;51.390;7.180;2023-03-18T03:01:13;12.90;90.10
36450;DHT22;22475;51.390;7.180;2023-03-18T03:03:40;12.90;90.10
36450;DHT22;22475;51.390;7.180;2023-03-18T03:06:07;12.90;90.10
36450;DHT22;22475;51.390;7.180;2023-03-18T03:08:34;12.90;90.00
36450;DHT22;22475;51.390;7.180;2023-03-18T03:11:01;12.90;90.00
36450;DHT22;22475;51.390;7.180;2023-03-18T03:13:27;12.90;89.90
36450;DHT22;22475;51.390;7.180;2023-03-18T03:15:56;12.90;89.80
36450;DHT22;22475;51.390;7.180;2023-03-18T03:18:22;12.90;89.70
36450;DHT22;22475;51.390;7.180;2023-03-18T03:20:51;12.90;89.60
36450;DHT22;22475;51.390;7.180;2023-03-18T03:23:18;12.90;89.50
36450;DHT22;22475;51.390;7.180;2023-03-18T03:25:44;12.90;89.30
36450;DHT22;22475;51.390;7.180;2023-03-18T03:28:12;12.90;89.30
36450;DHT22;22475;51.390;7.180;2023-03-18T03:30:41;12.90;89.20
36450;DHT22;22475;51.390;7.180;2023-03-18T03:33:09;12.90;89.20
36450;DHT22;22475;51.390;7.180;2023-03-18T03:35:36;12.90;89.10
36450;DHT22;22475;51.390;7.180;2023-03-18T03:38:04;12.90;89.10
36450;DHT22;22475;51.390;7.180;2023-03-18T03:40:31;12.90;89.00
36450;DHT22;22475;51.390;7.180;2023-03-18T03:42:58;12.90;89.00
36450;DHT22;22475;51.390;7.180;2023-03-18T03:45:25;12.90;88.90
36450;DHT22;22475;51.390;7.180;2023-03-18T03:47:52;12.90;88.80
36450;DHT22;22475;51.390;7.180;2023-03-18T03:50:20;12.90;88.80
36450;DHT22;22475;51.390;7.180;2023-03-18T03:52:47;12.90;88.70
36450;DHT22;22475;51.390;7.180;2023-03-18T03:55:16;12.90;88.60
36450;DHT22;22475;51.390;7.180;2023-03-18T03:57:44;12.90;88.60
36450;DHT22;22475;51.390;7.180;2023-03-18T04:00:13;12.90;88.50
36450;DHT22;22475;51.390;7.180;2023-03-18T04:02:41;12.90;88.60
36450;DHT22;22475;51.390;7.180;2023-03-18T04:05:10;12.90;88.50
36450;DHT22;22475;51.390;7.180;2023-03-18T04:07:39;12.90;89.10
36450;DHT22;22475;51.390;7.180;2023-03-18T04:10:08;12.90;88.40
36450;DHT22;22475;51.390;7.180;2023-03-18T04:12:35;12.90;88.40
36450;DHT22;22475;51.390;7.180;2023-03-18T04:15:03;12.90;88.30
36450;DHT22;22475;51.390;7.180;2023-03-18T04:17:31;12.90;88.30
36450;DHT22;22475;51.390;7.180;2023-03-18T04:19:57;12.90;88.20
36450;DHT22;22475;51.390;7.180;2023-03-18T04:22:24;12.90;88.90
36450;DHT22;22475;51.390;7.180;2023-03-18T04:24:52;13.00;88.20
36450;DHT22;22475;51.390;7.180;2023-03-18T04:27:19;13.00;88.20
36450;DHT22;22475;51.390;7.180;2023-03-18T04:29:47;12.90;88.20
36450;DHT22;22475;51.390;7.180;2023-03-18T04:32:14;12.90;88.20
36450;DHT22;22475;51.390;7.180;2023-03-18T04:34:40;12.90;88.90
36450;DHT22;22475;51.390;7.180;2023-03-18T04:37:07;12.90;88.10
36450;DHT22;22475;51.390;7.180;2023-03-18T04:39:34;12.90;88.10
36450;DHT22;22475;51.390;7.180;2023-03-18T04:42:03;12.90;88.10
36450;DHT22;22475;51.390;7.180;2023-03-18T04:44:30;13.00;88.20
36450;DHT22;22475;51.390;7.180;2023-03-18T04:46:56;13.00;88.20
36450;DHT22;22475;51.390;7.180;2023-03-18T04:49:24;13.00;88.20
36450;DHT22;22475;51.390;7.180;2023-03-18T04:51:51;12.90;88.10
36450;DHT22;22475;51.390;7.180;2023-03-18T04:54:18;13.00;88.20
36450;DHT22;22475;51.390;7.180;2023-03-18T04:56:45;12.90;88.20
36450;DHT22;22475;51.390;7.180;2023-03-18T04:59:13;12.90;88.20
36450;DHT22;22475;51.390;7.180;2023-03-18T05:01:40;12.90;88.20
36450;DHT22;22475;51.390;7.180;2023-03-18T05:04:07;12.90;88.20
36450;DHT22;22475;51.390;7.180;2023-03-18T05:06:34;13.00;88.20
36450;DHT22;22475;51.390;7.180;2023-03-18T05:09:02;12.90;88.10
36450;DHT22;22475;51.390;7.180;2023-03-18T05:11:30;12.90;88.90
36450;DHT22;22475;51.390;7.180;2023-03-18T05:13:57;13.00;88.20
36450;DHT22;22475;51.390;7.180;2023-03-18T05:16:25;12.90;88.20
36450;DHT22;22475;51.390;7.180;2023-03-18T05:18:52;12.90;88.40
36450;DHT22;22475;51.390;7.180;2023-03-18T05:21:19;12.90;88.50
36450;DHT22;22475;51.390;7.180;2023-03-18T05:23:45;12.90;88.60
36450;DHT22;22475;51.390;7.180;2023-03-18T05:26:12;13.00;88.70
36450;DHT22;22475;51.390;7.180;2023-03-18T05:28:39;12.90;88.70
36450;DHT22;22475;51.390;7.180;2023-03-18T05:31:06;12.90;88.80
36450;DHT22;22475;51.390;7.180;2023-03-18T05:33:34;13.00;88.90
36450;DHT22;22475;51.390;7.180;2023-03-18T05:36:01;13.00;88.90
36450;DHT22;22475;51.390;7.180;2023-03-18T05:38:27;13.00;88.90
36450;DHT22;22475;51.390;7.180;2023-03-18T05:40:54;13.00;89.10
36450;DHT22;22475;51.390;7.180;2023-03-18T05:43:22;12.90;89.10
36450;DHT22;22475;51.390;7.180;2023-03-18T05:45:50;13.00;89.20
36450;DHT22;22475;51.390;7.180;2023-03-18T05:48:17;13.00;89.30
36450;DHT22;22475;51.390;7.180;2023-03-18T05:50:45;13.00;89.40
36450;DHT22;22475;51.390;7.180;2023-03-18T05:53:12;12.90;89.40
36450;DHT22;22475;51.390;7.180;2023-03-18T05:55:41;13.00;89.50
36450;DHT22;22475;51.390;7.180;2023-03-18T05:58:08;13.00;89.50
36450;DHT22;22475;51.390;7.180;2023-03-18T06:00:35;13.00;89.60
36450;DHT22;22475;51.390;7.180;2023-03-18T06:03:03;13.00;89.80
36450;DHT22;22475;51.390;7.180;2023-03-18T06:05:29;13.00;89.90
36450;DHT22;22475;51.390;7.180;2023-03-18T06:07:57;13.00;90.00
36450;DHT22;22475;51.390;7.180;2023-03-18T06:10:25;13.00;90.00
36450;DHT22;22475;51.390;7.180;2023-03-18T06:12:52;13.00;90.00
36450;DHT22;22475;51.390;7.180;2023-03-18T06:15:20;13.00;90.10
36450;DHT22;22475;51.390;7.180;2023-03-18T06:17:47;13.00;90.10
36450;DHT22;22475;51.390;7.180;2023-03-18T06:20:15;13.00;90.10
36450;DHT22;22475;51.390;7.180;2023-03-18T06:22:43;13.00;90.10
36450;DHT22;22475;51.390;7.180;2023-03-18T06:25:16;13.00;90.10
36450;DHT22;22475;51.390;7.180;2023-03-18T06:27:43;13.00;90.20
36450;DHT22;22475;51.390;7.180;2023-03-18T06:30:11;13.00;90.60
36450;DHT22;22475;51.390;7.180;2023-03-18T06:32:38;13.00;90.30
36450;DHT22;22475;51.390;7.180;2023-03-18T06:35:06;13.00;90.30
36450;DHT22;22475;51.390;7.180;2023-03-18T06:37:33;13.00;90.40
36450;DHT22;22475;51.390;7.180;2023-03-18T06:40:00;13.00;90.40
36450;DHT22;22475;51.390;7.180;2023-03-18T06:42:28;13.00;90.40
36450;DHT22;22475;51.390;7.180;2023-03-18T06:44:55;13.00;90.40
36450;DHT22;22475;51.390;7.180;2023-03-18T06:47:22;13.00;90.40
36450;DHT22;22475;51.390;7.180;2023-03-18T06:49:49;13.00;90.40
36450;DHT22;22475;51.390;7.180;2023-03-18T06:52:16;13.00;90.50
36450;DHT22;22475;51.390;7.180;2023-03-18T06:54:44;13.00;90.50
36450;DHT22;22475;51.390;7.180;2023-03-18T06:57:11;13.00;90.60
36450;DHT22;22475;51.390;7.180;2023-03-18T06:59:39;13.00;90.60
36450;DHT22;22475;51.390;7.180;2023-03-18T07:02:08;13.00;90.60
36450;DHT22;22475;51.390;7.180;2023-03-18T07:04:35;13.00;90.60
36450;DHT22;22475;51.390;7.180;2023-03-18T07:07:01;13.00;90.60
36450;DHT22;22475;51.390;7.180;2023-03-18T07:09:29;13.00;90.70
36450;DHT22;22475;51.390;7.180;2023-03-18T07:11:58;13.00;90.70
36450;DHT22;22475;51.390;7.180;2023-03-18T07:14:25;13.00;90.70
36450;DHT22;22475;51.390;7.180;2023-03-18T07:16:54;13.00;90.70
36450;DHT22;22475;51.390;7.180;2023-03-18T07:19:21;13.00;91.10
36450;DHT22;22475;51.390;7.180;2023-03-18T07:21:48;13.00;90.80
36450;DHT22;22475;51.390;7.180;2023-03-18T07:24:15;13.00;90.80
36450;DHT22;22475;51.390;7.180;2023-03-18T07:26:42;13.00;90.80
36450;DHT22;22475;51.390;7.180;2023-03-18T07:29:09;13.10;90.90
36450;DHT22;22475;51.390;7.180;2023-03-18T07:31:36;13.00;90.90
36450;DHT22;22475;51.390;7.180;2023-03-18T07:34:04;13.00;90.90
36450;DHT22;22475;51.390;7.180;2023-03-18T07:36:31;13.00;90.90
36450;DHT22;22475;51.390;7.180;2023-03-18T07:38:58;13.10;91.00
36450;DHT22;22475;51.390;7.180;2023-03-18T07:41:25;13.00;91.00
36450;DHT22;22475;51.390;7.180;2023-03-18T07:43:52;13.00;91.00
36450;DHT22;22475;51.390;7.180;2023-03-18T07:46:19;13.10;91.10
36450;DHT22;22475;51.390;7.180;2023-03-18T07:48:46;13.00;91.10
36450;DHT22;22475;51.390;7.180;2023-03-18T07:51:15;13.10;91.10
36450;DHT22;22475;51.390;7.180;2023-03-18T07:53:42;13.10;91.20
36450;DHT22;22475;51.390;7.180;2023-03-18T07:56:09;13.00;91.10
36450;DHT22;22475;51.390;7.180;2023-03-18T07:58:36;13.00;91.10
36450;DHT22;22475;51.390;7.180;2023-03-18T08:01:04;13.00;91.10
36450;DHT22;22475;51.390;7.180;2023-03-18T08:03:32;13.00;91.10
36450;DHT22;22475;51.390;7.180;2023-03-18T08:05:59;13.00;91.10
36450;DHT22;22475;51.390;7.180;2023-03-18T08:08:27;13.10;91.10
36450;DHT22;22475;51.390;7.180;2023-03-18T08:10:56;13.10;91.10
36450;DHT22;22475;51.390;7.180;2023-03-18T08:13:24;13.00;91.00
36450;DHT22;22475;51.390;7.180;2023-03-18T08:15:51;13.10;91.00
36450;DHT22;22475;51.390;7.180;2023-03-18T08:18:18;13.10;91.00
36450;DHT22;22475;51.390;7.180;2023-03-18T08:20:45;13.00;90.90
36450;DHT22;22475;51.390;7.180;2023-03-18T08:23:13;13.10;90.90
36450;DHT22;22475;51.390;7.180;2023-03-18T08:25:41;13.10;90.90
36450;DHT22;22475;51.390;7.180;2023-03-18T08:28:08;13.10;90.80
36450;DHT22;22475;51.390;7.180;2023-03-18T08:30:37;13.10;90.80
36450;DHT22;22475;51.390;7.180;2023-03-18T08:33:04;13.10;90.70
36450;DHT22;22475;51.390;7.180;2023-03-18T08:35:31;13.10;90.70
36450;DHT22;22475;51.390;7.180;2023-03-18T08:37:58;13.10;90.70
36450;DHT22;22475;51.390;7.180;2023-03-18T08:40:25;13.10;90.70
36450;DHT22;22475;51.390;7.180;2023-03-18T08:42:53;13.10;90.60
36450;DHT22;22475;51.390;7.180;2023-03-18T08:45:21;13.10;91.00
36450;DHT22;22475;51.390;7.180;2023-03-18T08:47:47;13.10;90.60
36450;DHT22;22475;51.390;7.180;2023-03-18T08:50:14;13.10;90.60
36450;DHT22;22475;51.390;7.180;2023-03-18T08:52:41;13.10;90.60
36450;DHT22;22475;51.390;7.180;2023-03-18T08:55:08;13.10;90.60
36450;DHT22;22475;51.390;7.180;2023-03-18T08:57:35;13.10;90.60
36450;DHT22;22475;51.390;7.180;2023-03-18T09:00:04;13.10;90.60
36450;DHT22;22475;51.390;7.180;2023-03-18T09:02:32;13.10;90.50
36450;DHT22;22475;51.390;7.180;2023-03-18T09:04:58;13.10;90.50
36450;DHT22;22475;51.390;7.180;2023-03-18T09:07:25;13.10;90.50
36450;DHT22;22475;51.390;7.180;2023-03-18T09:09:52;13.10;90.50
36450;DHT22;22475;51.390;7.180;2023-03-18T09:12:19;13.10;90.40
36450;DHT22;22475;51.390;7.180;2023-03-18T09:14:46;13.10;90.40
36450;DHT22;22475;51.390;7.180;2023-03-18T09:17:14;13.10;90.40
36450;DHT22;22475;51.390;7.180;2023-03-18T09:19:41;13.10;90.40
36450;DHT22;22475;51.390;7.180;2023-03-18T09:22:08;13.10;90.40
36450;DHT22;22475;51.390;7.180;2023-03-18T09:24:34;13.10;90.40
36450;DHT22;22475;51.390;7.180;2023-03-18T09:27:01;13.10;90.40
36450;DHT22;22475;51.390;7.180;2023-03-18T09:29:28;13.10;90.40
36450;DHT22;22475;51.390;7.180;2023-03-18T09:31:55;13.10;90.40
36450;DHT22;22475;51.390;7.180;2023-03-18T09:34:23;13.10;90.40
36450;DHT22;22475;51.390;7.180;2023-03-18T09:36:50;13.10;90.40
36450;DHT22;22475;51.390;7.180;2023-03-18T09:39:17;13.10;90.40
36450;DHT22;22475;51.390;7.180;2023-03-18T09:41:55;13.10;90.40
36450;DHT22;22475;51.390;7.180;2023-03-18T09:44:29;13.10;90.40
36450;DHT22;22475;51.390;7.180;2023-03-18T09:47:06;13.10;90.40
36450;DHT22;22475;51.390;7.180;2023-03-18T09:49:48;13.10;90.40
36450;DHT22;22475;51.390;7.180;2023-03-18T09:52:20;13.10;90.40
36450;DHT22;22475;51.390;7.180;2023-03-18T09:54:48;13.10;90.40
36450;DHT22;22475;51.390;7.180;2023-03-18T09:57:20;13.20;90.40
36450;DHT22;22475;51.390;7.180;2023-03-18T09:59:52;13.20;90.40
36450;DHT22;22475;51.390;7.180;2023-03-18T10:02:24;13.10;90.30
36450;DHT22;22475;51.390;7.180;2023-03-18T10:04:56;13.10;90.40
36450;DHT22;22475;51.390;7.180;2023-03-18T10:07:28;13.10;90.70
36450;DHT22;22475;51.390;7.180;2023-03-18T10:10:01;13.10;90.40
36450;DHT22;22475;51.390;7.180;2023-03-18T10:12:30;13.10;90.40
36450;DHT22;22475;51.390;7.180;2023-03-18T10:15:09;13.10;90.50
36450;DHT22;22475;51.390;7.180;2023-03-18T10:17:41;13.10;90.50
36450;DHT22;22475;51.390;7.180;2023-03-18T10:20:16;13.10;90.50
36450;DHT22;22475;51.390;7.180;2023-03-18T10:22:55;13.10;90.50
36450;DHT22;22475;51.390;7.180;2023-03-18T10:25:27;13.10;90.50
36450;DHT22;22475;51.390;7.180;2023-03-18T10:28:16;13.10;90.50
36450;DHT22;22475;51.390;7.180;2023-03-18T10:30:53;13.20;90.50
36450;DHT22;22475;51.390;7.180;2023-03-18T10:33:32;13.20;90.50
36450;DHT22;22475;51.390;7.180;2023-03-18T10:36:10;13.20;90.50
36450;DHT22;22475;51.390;7.180;2023-03-18T10:38:40;13.20;90.50
36450;DHT22;22475;51.390;7.180;2023-03-18T10:41:14;13.20;90.50
36450;DHT22;22475;51.390;7.180;2023-03-18T10:43:42;13.20;90.50
36450;DHT22;22475;51.390;7.180;2023-03-18T10:46:14;13.20;90.50
36450;DHT22;22475;51.390;7.180;2023-03-18T10:48:41;13.20;90.50
36450;DHT22;22475;51.390;7.180;2023-03-18T10:51:15;13.20;90.50
36450;DHT22;22475;51.390;7.180;2023-03-18T10:53:48;13.20;90.40
36450;DHT22;22475;51.390;7.180;2023-03-18T10:56:17;13.20;90.40
36450;DHT22;22475;51.390;7.180;2023-03-18T10:58:44;13.20;90.40
36450;DHT22;22475;51.390;7.180;2023-03-18T11:01:15;13.20;90.50
36450;DHT22;22475;51.390;7.180;2023-03-18T11:03:43;13.20;90.60
36450;DHT22;22475;51.390;7.180;2023-03-18T11:06:16;13.20;90.60
36450;DHT22;22475;51.390;7.180;2023-03-18T11:08:47;13.20;90.50
36450;DHT22;22475;51.390;7.180;2023-03-18T11:11:19;13.30;90.60
36450;DHT22;22475;51.390;7.180;2023-03-18T11:13:49;13.30;90.90
36450;DHT22;22475;51.390;7.180;2023-03-18T11:16:28;13.20;90.60
36450;DHT22;22475;51.390;7.180;2023-03-18T11:18:56;13.20;90.70
36450;DHT22;22475;51.390;7.180;2023-03-18T11:21:26;13.30;90.70
36450;DHT22;22475;51.390;7.180;2023-03-18T11:23:58;13.30;90.70
36450;DHT22;22475;51.390;7.180;2023-03-18T11:26:48;13.30;90.70
36450;DHT22;22475;51.390;7.180;2023-03-18T11:29:21;13.30;90.70
36450;DHT22;22475;51.390;7.180;2023-03-18T11:31:51;13.30;90.70
36450;DHT22;22475;51.390;7.180;2023-03-18T11:34:19;13.30;90.70
36450;DHT22;22475;51.390;7.180;2023-03-18T11:36:58;13.30;90.70
36450;DHT22;22475;51.390;7.180;2023-03-18T11:39:30;13.30;90.70
36450;DHT22;22475;51.390;7.180;2023-03-18T11:41:58;13.30;90.70
36450;DHT22;22475;51.390;7.180;2023-03-18T11:44:30;13.30;90.60
36450;DHT22;22475;51.390;7.180;2023-03-18T11:47:04;13.30;90.60
36450;DHT22;22475;51.390;7.180;2023-03-18T11:49:32;13.30;90.60
36450;DHT22;22475;51.390;7.180;2023-03-18T11:52:09;13.30;90.60
36450;DHT22;22475;51.390;7.180;2023-03-18T11:55:00;13.30;90.60
36450;DHT22;22475;51.390;7.180;2023-03-18T11:57:36;13.30;90.60
36450;DHT22;22475;51.390;7.180;2023-03-18T12:00:16;13.30;90.50
36450;DHT22;22475;51.390;7.180;2023-03-18T12:03:13;13.30;90.50
36450;DHT22;22475;51.390;7.180;2023-03-18T12:06:04;13.30;90.50
36450;DHT22;22475;51.390;7.180;2023-03-18T12:08:45;13.30;90.50
36450;DHT22;22475;51.390;7.180;2023-03-18T12:11:20;13.30;90.50
36450;DHT22;22475;51.390;7.180;2023-03-18T12:13:58;13.30;90.50
36450;DHT22;22475;51.390;7.180;2023-03-18T12:16:36;13.30;90.50
36450;DHT22;22475;51.390;7.180;2023-03-18T12:19:28;13.30;90.50
36450;DHT22;22475;51.390;7.180;2023-03-18T12:22:15;13.30;90.50
36450;DHT22;22475;51.390;7.180;2023-03-18T12:24:59;13.30;90.40
36450;DHT22;22475;51.390;7.180;2023-03-18T12:27:38;13.30;90.40
36450;DHT22;22475;51.390;7.180;2023-03-18T12:30:16;13.30;90.40
36450;DHT22;22475;51.390;7.180;2023-03-18T12:32:51;13.30;90.40
36450;DHT22;22475;51.390;7.180;2023-03-18T12:35:36;13.30;90.40
36450;DHT22;22475;51.390;7.180;2023-03-18T12:38:15;13.30;90.40
36450;DHT22;22475;51.390;7.180;2023-03-18T12:40:55;13.30;90.40
36450;DHT22;22475;51.390;7.180;2023-03-18T12:43:42;13.30;90.40
36450;DHT22;22475;51.390;7.180;2023-03-18T12:46:20;13.30;90.40
36450;DHT22;22475;51.390;7.180;2023-03-18T12:48:53;13.30;90.40
36450;DHT22;22475;51.390;7.180;2023-03-18T12:51:24;13.40;90.40
36450;DHT22;22475;51.390;7.180;2023-03-18T12:53:54;13.30;90.40
36450;DHT22;22475;51.390;7.180;2023-03-18T12:56:25;13.40;90.40
36450;DHT22;22475;51.390;7.180;2023-03-18T12:59:04;13.30;90.40
36450;DHT22;22475;51.390;7.180;2023-03-18T13:01:34;13.30;90.40
36450;DHT22;22475;51.390;7.180;2023-03-18T13:04:05;13.30;90.40
36450;DHT22;22475;51.390;7.180;2023-03-18T13:06:37;13.30;90.40
36450;DHT22;22475;51.390;7.180;2023-03-18T13:09:10;13.40;90.40
36450;DHT22;22475;51.390;7.180;2023-03-18T13:11:58;13.40;90.40
36450;DHT22;22475;51.390;7.180;2023-03-18T13:14:35;13.30;90.40
36450;DHT22;22475;51.390;7.180;2023-03-18T13:17:09;13.40;90.40
36450;DHT22;22475;51.390;7.180;2023-03-18T13:19:39;13.30;90.30
36450;DHT22;22475;51.390;7.180;2023-03-18T13:22:16;13.40;90.40
36450;DHT22;22475;51.390;7.180;2023-03-18T13:28:03;13.30;90.30
36450;DHT22;22475;51.390;7.180;2023-03-18T13:30:42;13.40;90.40
36450;DHT22;22475;51.390;7.180;2023-03-18T13:33:33;13.40;90.30
36450;DHT22;22475;51.390;7.180;2023-03-18T13:36:32;13.40;90.30
36450;DHT22;22475;51.390;7.180;2023-03-18T13:39:16;13.40;90.30
36450;DHT22;22475;51.390;7.180;2023-03-18T13:42:05;13.40;90.30
36450;DHT22;22475;51.390;7.180;2023-03-18T13:44:40;13.40;90.30
36450;DHT22;22475;51.390;7.180;2023-03-18T13:47:15;13.40;90.30
36450;DHT22;22475;51.390;7.180;2023-03-18T13:49:42;13.40;90.30
36450;DHT22;22475;51.390;7.180;2023-03-18T13:52:22;13.40;90.30
36450;DHT22;22475;51.390;7.180;2023-03-18T13:54:51;13.40;90.30
36450;DHT22;22475;51.390;7.180;2023-03-18T13:57:33;13.40;90.30
36450;DHT22;22475;51.390;7.180;2023-03-18T14:00:29;13.40;90.30
36450;DHT22;22475;51.390;7.180;2023-03-18T14:03:04;13.40;90.30
36450;DHT22;22475;51.390;7.180;2023-03-18T14:05:34;13.40;90.30
36450;DHT22;22475;51.390;7.180;2023-03-18T14:08:03;13.40;90.30
36450;DHT22;22475;51.390;7.180;2023-03-18T14:10:31;13.40;90.30
36450;DHT22;22475;51.390;7.180;2023-03-18T14:13:23;13.40;90.30
36450;DHT22;22475;51.390;7.180;2023-03-18T14:15:55;13.40;90.30
36450;DHT22;22475;51.390;7.180;2023-03-18T14:18:24;13.40;90.20
36450;DHT22;22475;51.390;7.180;2023-03-18T14:20:52;13.40;90.30
36450;DHT22;22475;51.390;7.180;2023-03-18T14:23:37;13.40;90.20
36450;DHT22;22475;51.390;7.180;2023-03-18T14:26:07;13.40;90.20
36450;DHT22;22475;51.390;7.180;2023-03-18T14:28:45;13.40;90.20
36450;DHT22;22475;51.390;7.180;2023-03-18T14:31:17;13.40;90.20
36450;DHT22;22475;51.390;7.180;2023-03-18T14:34:01;13.40;90.20
36450;DHT22;22475;51.390;7.180;2023-03-18T14:36:44;13.40;90.10
36450;DHT22;22475;51.390;7.180;2023-03-18T14:39:15;13.40;90.10
36450;DHT22;22475;51.390;7.180;2023-03-18T14:41:45;13.40;90.10
36450;DHT22;22475;51.390;7.180;2023-03-18T14:44:20;13.40;90.20
36450;DHT22;22475;51.390;7.180;2023-03-18T14:46:52;13.40;90.20
36450;DHT22;22475;51.390;7.180;2023-03-18T14:49:33;13.40;90.20
36450;DHT22;22475;51.390;7.180;2023-03-18T14:52:02;13.40;90.20
36450;DHT22;22475;51.390;7.180;2023-03-18T14:54:34;13.40;90.20
36450;DHT22;22475;51.390;7.180;2023-03-18T14:57:03;13.40;90.20
36450;DHT22;22475;51.390;7.180;2023-03-18T14:59:30;13.40;90.20
36450;DHT22;22475;51.390;7.180;2023-03-18T15:02:01;13.40;90.20
36450;DHT22;22475;51.390;7.180;2023-03-18T15:04:29;13.40;90.20
36450;DHT22;22475;51.390;7.180;2023-03-18T15:06:59;13.40;90.20
36450;DHT22;22475;51.390;7.180;2023-03-18T15:09:28;13.40;90.20
36450;DHT22;22475;51.390;7.180;2023-03-18T15:11:57;13.40;90.30
36450;DHT22;22475;51.390;7.180;2023-03-18T15:14:26;13.40;90.30
36450;DHT22;22475;51.390;7.180;2023-03-18T15:16:55;13.40;90.30
36450;DHT22;22475;51.390;7.180;2023-03-18T15:19:23;13.40;90.30
36450;DHT22;22475;51.390;7.180;2023-03-18T15:21:51;13.40;90.30
36450;DHT22;22475;51.390;7.180;2023-03-18T15:24:21;13.40;90.30
36450;DHT22;22475;51.390;7.180;2023-03-18T15:26:55;13.40;90.30
36450;DHT22;22475;51.390;7.180;2023-03-18T15:29:25;13.40;90.40
36450;DHT22;22475;51.390;7.180;2023-03-18T15:31:53;13.40;90.40
36450;DHT22;22475;51.390;7.180;2023-03-18T15:34:32;13.40;90.40
36450;DHT22;22475;51.390;7.180;2023-03-18T15:37:01;13.40;90.40
36450;DHT22;22475;51.390;7.180;2023-03-18T15:39:32;13.40;90.50
36450;DHT22;22475;51.390;7.180;2023-03-18T15:42:01;13.40;90.50
36450;DHT22;22475;51.390;7.180;2023-03-18T15:44:30;13.40;90.90
36450;DHT22;22475;51.390;7.180;2023-03-18T15:47:04;13.50;90.70
36450;DHT22;22475;51.390;7.180;2023-03-18T15:49:44;13.50;90.70
36450;DHT22;22475;51.390;7.180;2023-03-18T15:52:15;13.50;90.80